createdAt,value
2023-03-27T00:00:13.507Z,98795.95
2023-03-27T00:01:17.954Z,98792.62
2023-03-27T00:02:20.511Z,98789.14
2023-03-27T00:03:24.754Z,98795.45
2023-03-27T00:04:27.141Z,98792.80
2023-03-27T00:05:29.315Z,98785.17
2023-03-27T00:06:31.874Z,98786.97
2023-03-27T00:07:34.104Z,98787.70
2023-03-27T00:08:36.889Z,98786.76
2023-03-27T00:09:39.445Z,98784.88
2023-03-27T00:10:41.574Z,98789.22
2023-03-27T00:11:43.869Z,98789.05
2023-03-27T00:12:46.675Z,98785.55
2023-03-27T00:13:50.197Z,98786.23
2023-03-27T00:14:52.842Z,98786.23
2023-03-27T00:15:56.817Z,98776.52
2023-03-27T00:16:59.108Z,98782.56
2023-03-27T00:18:01.890Z,98784.99
2023-03-27T00:19:04.405Z,98783.88
2023-03-27T00:20:06.972Z,98783.02
2023-03-27T00:21:09.244Z,98784.72
2023-03-27T00:22:11.786Z,98790.01
2023-03-27T00:23:13.899Z,98783.96
2023-03-27T00:24:16.514Z,98783.96
2023-03-27T00:25:18.973Z,98778.86
2023-03-27T00:26:21.987Z,98784.53
2023-03-27T00:27:24.331Z,98780.86
2023-03-27T00:28:28.765Z,98780.95
2023-03-27T00:29:31.497Z,98786.76
2023-03-27T00:30:34.914Z,98784.88
2023-03-27T00:31:37.234Z,98790.08
2023-03-27T00:32:40.256Z,98786.58
2023-03-27T00:33:42.723Z,98785.73
2023-03-27T00:34:45.466Z,98793.74
2023-03-27T00:35:49.815Z,98795.45
2023-03-27T00:36:52.438Z,98789.40
2023-03-27T00:37:55.300Z,98793.95
2023-03-27T00:38:57.639Z,98794.13
2023-03-27T00:40:00.233Z,98795.33
2023-03-27T00:41:02.576Z,98787.31
2023-03-27T00:42:05.002Z,98790.89
2023-03-27T00:43:25.858Z,98782.97
2023-03-27T00:44:31.172Z,98785.78
2023-03-27T00:45:33.887Z,98787.66
2023-03-27T00:46:42.798Z,98778.80
2023-03-27T00:47:48.390Z,98773.61
2023-03-27T00:48:54.827Z,98776.92
2023-03-27T00:49:59.914Z,98789.19
2023-03-27T00:51:04.184Z,98787.49
2023-03-27T00:52:07.520Z,98781.09
2023-03-27T00:53:13.296Z,98783.73
2023-03-27T00:54:18.592Z,98784.59
2023-03-27T00:55:24.793Z,98780.16
2023-03-27T00:56:28.003Z,98788.84
2023-03-27T00:57:33.498Z,98789.78
2023-03-27T00:59:54.545Z,98774.63
2023-03-27T01:00:57.560Z,98792.42
2023-03-27T01:02:03.182Z,98789.69
2023-03-27T01:03:08.319Z,98782.53
2023-03-27T01:04:10.771Z,98782.33
2023-03-27T01:05:13.171Z,98792.72
2023-03-27T01:06:16.743Z,98793.74
2023-03-27T01:07:20.896Z,98787.61
2023-03-27T01:08:24.919Z,98791.40
2023-03-27T01:09:27.200Z,98792.34
2023-03-27T01:12:01.516Z,98795.09
2023-03-27T01:13:21.164Z,98791.28
2023-03-27T01:14:33.272Z,98794.56
2023-03-27T01:15:42.105Z,98789.19
2023-03-27T01:16:57.279Z,98786.47
2023-03-27T01:18:18.253Z,98787.31
2023-03-27T01:19:42.111Z,98783.73
2023-03-27T01:20:57.582Z,98789.61
2023-03-27T01:22:17.589Z,98794.77
2023-03-27T01:24:00.596Z,98788.46
2023-03-27T01:25:11.214Z,98794.59
2023-03-27T01:26:43.135Z,98788.67
2023-03-27T01:27:55.184Z,98792.04
2023-03-27T01:29:33.297Z,98792.80
2023-03-27T01:31:00.309Z,98799.97
2023-03-27T01:32:36.127Z,98794.04
2023-03-27T01:33:56.683Z,98795.06
2023-03-27T01:35:18.099Z,98797.03
2023-03-27T01:36:42.980Z,98783.91
2023-03-27T01:39:28.432Z,98787.99
2023-03-27T01:40:37.788Z,98785.31
2023-03-27T01:43:12.127Z,98796.00
2023-03-27T01:44:20.956Z,98793.33
2023-03-27T01:45:38.605Z,98799.45
2023-03-27T01:48:18.873Z,98802.98
2023-03-27T01:49:24.771Z,98798.44
2023-03-27T01:50:40.466Z,98792.95
2023-03-27T01:53:20.541Z,98797.06
2023-03-27T01:54:32.089Z,98792.42
2023-03-27T01:55:37.985Z,98790.55
2023-03-27T01:56:49.967Z,98792.34
2023-03-27T01:58:04.815Z,98799.03
2023-03-27T01:59:11.196Z,98788.67
2023-03-27T02:00:19.619Z,98795.63
2023-03-27T02:01:25.261Z,98797.23
2023-03-27T02:02:32.757Z,98806.09
2023-03-27T02:03:50.824Z,98800.26
2023-03-27T02:04:56.835Z,98797.53
2023-03-27T02:06:02.910Z,98796.68
2023-03-27T02:07:10.232Z,98792.42
2023-03-27T02:09:37.763Z,98789.61
2023-03-27T02:10:43.637Z,98788.72
2023-03-27T02:12:00.610Z,98790.52
2023-03-27T02:13:09.527Z,98784.29
2023-03-27T02:14:19.154Z,98786.93
2023-03-27T02:16:41.383Z,98792.52
2023-03-27T02:17:53.278Z,98792.39
2023-03-27T02:18:59.479Z,98798.61
2023-03-27T02:20:08.553Z,98798.61
2023-03-27T02:21:11.100Z,98803.88
2023-03-27T02:22:14.544Z,98796.73
2023-03-27T02:23:18.889Z,98806.44
2023-03-27T02:24:21.306Z,98798.61
2023-03-27T02:25:28.360Z,98809.00
2023-03-27T02:26:32.674Z,98805.42
2023-03-27T02:27:44.117Z,98806.91
2023-03-27T02:30:24.529Z,98800.73
2023-03-27T02:31:45.299Z,98813.90
2023-03-27T02:32:58.823Z,98810.32
2023-03-27T02:34:23.138Z,98813.55
2023-03-27T02:36:56.737Z,98804.81
2023-03-27T02:38:19.972Z,98817.13
2023-03-27T02:39:37.100Z,98813.55
2023-03-27T02:40:55.249Z,98812.20
2023-03-27T02:44:56.987Z,98821.05
2023-03-27T02:47:16.330Z,98818.88
2023-03-27T02:48:22.615Z,98826.52
2023-03-27T02:49:37.454Z,98828.30
2023-03-27T02:50:49.728Z,98825.58
2023-03-27T02:52:11.106Z,98821.16
2023-03-27T02:53:17.040Z,98819.25
2023-03-27T02:55:36.817Z,98828.45
2023-03-27T02:56:43.311Z,98826.00
2023-03-27T02:57:52.059Z,98823.36
2023-03-27T02:59:11.694Z,98830.17
2023-03-27T03:00:18.220Z,98836.98
2023-03-27T03:01:24.398Z,98834.92
2023-03-27T03:02:34.197Z,98843.60
2023-03-27T03:05:06.373Z,98839.91
2023-03-27T03:06:13.517Z,98841.56
2023-03-27T03:07:15.809Z,98846.64
2023-03-27T03:08:18.233Z,98849.20
2023-03-27T03:09:21.008Z,98850.91
2023-03-27T03:10:24.509Z,98849.20
2023-03-27T03:11:27.715Z,98854.48
2023-03-27T03:12:29.974Z,98855.41
2023-03-27T03:13:32.428Z,98857.20
2023-03-27T03:14:38.044Z,98857.03
2023-03-27T03:15:40.278Z,98864.70
2023-03-27T03:16:42.621Z,98855.16
2023-03-27T03:17:45.721Z,98853.62
2023-03-27T03:18:49.337Z,98859.67
2023-03-27T03:19:51.752Z,98859.76
2023-03-27T03:20:55.016Z,98863.45
2023-03-27T03:21:57.593Z,98862.48
2023-03-27T03:22:59.652Z,98859.96
2023-03-27T03:24:02.306Z,98858.25
2023-03-27T03:25:07.163Z,98863.53
2023-03-27T03:26:10.341Z,98869.83
2023-03-27T03:27:17.155Z,98865.74
2023-03-27T03:28:21.717Z,98868.30
2023-03-27T03:29:24.346Z,98863.19
2023-03-27T03:30:28.709Z,98863.19
2023-03-27T03:31:32.861Z,98871.30
2023-03-27T03:32:35.767Z,98863.19
2023-03-27T03:33:39.918Z,98875.81
2023-03-27T03:34:42.201Z,98876.58
2023-03-27T03:35:51.328Z,98880.89
2023-03-27T03:36:55.831Z,98874.68
2023-03-27T03:37:59.948Z,98877.32
2023-03-27T03:39:03.989Z,98872.56
2023-03-27T03:40:08.722Z,98874.27
2023-03-27T03:41:11.819Z,98875.98
2023-03-27T03:42:22.888Z,98874.27
2023-03-27T03:43:19.926Z,98874.11
2023-03-27T03:44:22.055Z,98881.09
2023-03-27T03:45:25.055Z,98875.05
2023-03-27T03:46:27.469Z,98881.25
2023-03-27T03:47:29.698Z,98881.25
2023-03-27T03:48:32.009Z,98879.55
2023-03-27T03:49:34.299Z,98880.48
2023-03-27T03:50:36.509Z,98880.57
2023-03-27T03:51:38.805Z,98882.36
2023-03-27T03:52:42.364Z,98884.22
2023-03-27T03:53:44.705Z,98889.42
2023-03-27T03:54:47.054Z,98889.42
2023-03-27T03:55:51.651Z,98886.01
2023-03-27T03:56:54.788Z,98891.29
2023-03-27T03:57:57.257Z,98886.86
2023-03-27T03:59:01.635Z,98890.27
2023-03-27T04:01:16.966Z,98893.16
2023-03-27T04:02:21.638Z,98892.06
2023-03-27T04:03:24.460Z,98897.42
2023-03-27T04:04:28.564Z,98907.81
2023-03-27T04:05:33.094Z,98898.96
2023-03-27T04:06:35.750Z,98891.81
2023-03-27T04:07:39.879Z,98895.39
2023-03-27T04:08:53.107Z,98899.64
2023-03-27T04:09:57.968Z,98901.27
2023-03-27T04:11:02.095Z,98894.29
2023-03-27T04:12:21.302Z,98902.01
2023-03-27T04:13:25.794Z,98903.72
2023-03-27T04:14:30.023Z,98896.73
2023-03-27T04:15:32.940Z,98894.86
2023-03-27T04:16:37.999Z,98900.83
2023-03-27T04:17:43.353Z,98897.94
2023-03-27T04:18:45.887Z,98901.34
2023-03-27T04:19:49.888Z,98899.45
2023-03-27T04:20:54.383Z,98897.77
2023-03-27T04:21:58.766Z,98906.42
2023-03-27T04:23:03.626Z,98896.64
2023-03-27T04:24:06.618Z,98907.11
2023-03-27T04:25:10.659Z,98909.84
2023-03-27T04:26:13.198Z,98903.70
2023-03-27T04:28:28.116Z,98905.22
2023-03-27T04:29:32.179Z,98914.70
2023-03-27T04:30:34.759Z,98908.28
2023-03-27T04:31:56.272Z,98903.13
2023-03-27T04:33:16.865Z,98903.69
2023-03-27T04:35:31.274Z,98900.25
2023-03-27T04:36:35.424Z,98897.72
2023-03-27T04:37:41.132Z,98906.33
2023-03-27T04:38:45.639Z,98903.69
2023-03-27T04:39:50.881Z,98901.05
2023-03-27T04:40:54.978Z,98898.58
2023-03-27T04:41:58.537Z,98899.34
2023-03-27T04:43:02.670Z,98899.17
2023-03-27T04:44:06.776Z,98904.45
2023-03-27T04:45:12.858Z,98904.37
2023-03-27T04:46:16.940Z,98906.92
2023-03-27T04:47:19.638Z,98904.37
2023-03-27T04:48:23.055Z,98894.48
2023-03-27T04:49:28.673Z,98898.84
2023-03-27T04:50:32.922Z,98904.89
2023-03-27T04:51:35.230Z,98902.98
2023-03-27T04:52:38.023Z,98901.19
2023-03-27T04:53:40.851Z,98903.66
2023-03-27T04:54:43.419Z,98901.11
2023-03-27T04:55:47.342Z,98907.16
2023-03-27T04:56:50.153Z,98904.52
2023-03-27T04:57:55.896Z,98904.52
2023-03-27T04:58:58.106Z,98903.75
2023-03-27T05:00:02.264Z,98906.39
2023-03-27T05:02:18.941Z,98892.84
2023-03-27T05:03:23.426Z,98899.77
2023-03-27T05:04:37.042Z,98897.90
2023-03-27T05:05:41.207Z,98896.96
2023-03-27T05:06:43.863Z,98894.32
2023-03-27T05:07:49.128Z,98896.84
2023-03-27T05:08:56.446Z,98900.17
2023-03-27T05:10:00.576Z,98901.79
2023-03-27T05:11:03.428Z,98905.20
2023-03-27T05:12:07.556Z,98904.17
2023-03-27T05:13:12.305Z,98909.25
2023-03-27T05:14:16.505Z,98904.73
2023-03-27T05:15:20.938Z,98908.91
2023-03-27T05:16:23.639Z,98918.45
2023-03-27T05:17:27.673Z,98917.43
2023-03-27T05:18:30.814Z,98916.41
2023-03-27T05:19:33.766Z,98926.13
2023-03-27T05:20:36.845Z,98924.33
2023-03-27T05:21:41.357Z,98921.69
2023-03-27T05:22:45.927Z,98921.57
2023-03-27T05:24:05.625Z,98923.28
2023-03-27T05:25:08.583Z,98922.34
2023-03-27T05:26:12.237Z,98922.34
2023-03-27T05:27:22.132Z,98925.92
2023-03-27T05:28:26.787Z,98911.86
2023-03-27T05:29:29.084Z,98918.08
2023-03-27T05:30:33.251Z,98909.30
2023-03-27T05:31:43.394Z,98920.84
2023-03-27T05:33:05.224Z,98916.58
2023-03-27T05:34:07.531Z,98924.42
2023-03-27T05:35:11.384Z,98925.36
2023-03-27T05:36:15.606Z,98923.48
2023-03-27T05:37:17.882Z,98922.72
2023-03-27T05:38:22.211Z,98925.27
2023-03-27T05:39:43.211Z,98918.08
2023-03-27T05:40:45.647Z,98931.12
2023-03-27T05:41:50.596Z,98932.65
2023-03-27T05:42:55.898Z,98922.93
2023-03-27T05:44:00.416Z,98927.10
2023-03-27T05:45:05.058Z,98931.25
2023-03-27T05:46:07.647Z,98928.43
2023-03-27T05:47:11.556Z,98928.08
2023-03-27T05:48:14.392Z,98927.70
2023-03-27T05:49:17.398Z,98938.09
2023-03-27T05:51:35.181Z,98935.97
2023-03-27T05:52:37.446Z,98937.36
2023-03-27T05:53:39.840Z,98943.23
2023-03-27T05:54:52.747Z,98935.97
2023-03-27T05:56:03.093Z,98944.45
2023-03-27T05:56:59.401Z,98939.08
2023-03-27T05:58:02.963Z,98939.84
2023-03-27T05:59:05.328Z,98932.84
2023-03-27T06:00:13.094Z,98937.28
2023-03-27T06:01:17.345Z,98938.13
2023-03-27T06:02:21.455Z,98931.14
2023-03-27T06:03:31.660Z,98934.55
2023-03-27T06:04:37.058Z,98928.31
2023-03-27T06:05:43.730Z,98934.37
2023-03-27T06:06:47.407Z,98930.78
2023-03-27T06:07:50.382Z,98936.92
2023-03-27T06:08:53.019Z,98936.92
2023-03-27T06:09:55.857Z,98939.48
2023-03-27T06:11:11.969Z,98940.42
2023-03-27T06:12:18.811Z,98927.95
2023-03-27T06:13:22.632Z,98921.81
2023-03-27T06:14:26.942Z,98922.54
2023-03-27T06:15:46.772Z,98925.95
2023-03-27T06:16:54.196Z,98930.20
2023-03-27T06:18:15.989Z,98928.23
2023-03-27T06:19:18.831Z,98926.25
2023-03-27T06:20:25.079Z,98931.33
2023-03-27T06:21:28.706Z,98929.44
2023-03-27T06:23:46.459Z,98929.69
2023-03-27T06:24:49.535Z,98932.09
2023-03-27T06:25:53.741Z,98937.29
2023-03-27T06:26:58.149Z,98936.25
2023-03-27T06:28:04.619Z,98937.90
2023-03-27T06:29:09.937Z,98932.42
2023-03-27T06:30:19.225Z,98935.70
2023-03-27T06:31:23.708Z,98940.81
2023-03-27T06:32:32.700Z,98942.42
2023-03-27T06:33:35.013Z,98940.44
2023-03-27T06:34:39.121Z,98946.41
2023-03-27T06:35:52.936Z,98944.39
2023-03-27T06:36:54.309Z,98946.00
2023-03-27T06:37:57.096Z,98941.55
2023-03-27T06:38:59.670Z,98941.46
2023-03-27T06:40:03.912Z,98940.42
2023-03-27T06:41:06.598Z,98938.62
2023-03-27T06:43:27.525Z,98941.91
2023-03-27T06:44:37.480Z,98947.59
2023-03-27T06:45:53.668Z,98945.70
2023-03-27T06:47:02.687Z,98940.20
2023-03-27T06:48:16.955Z,98941.78
2023-03-27T06:49:13.141Z,98943.39
2023-03-27T06:50:16.952Z,98939.70
2023-03-27T06:51:19.604Z,98943.02
2023-03-27T06:52:22.546Z,98948.12
2023-03-27T06:53:28.222Z,98941.87
2023-03-27T06:54:29.567Z,98943.26
2023-03-27T06:55:34.004Z,98945.72
2023-03-27T06:56:37.709Z,98946.38
2023-03-27T06:57:56.576Z,98944.34
2023-03-27T06:58:59.036Z,98944.16
2023-03-27T07:00:04.108Z,98943.11
2023-03-27T07:01:13.937Z,98946.52
2023-03-27T07:02:26.624Z,98946.33
2023-03-27T07:03:47.941Z,98941.87
2023-03-27T07:05:08.799Z,98944.30
2023-03-27T07:06:13.271Z,98946.75
2023-03-27T07:07:17.498Z,98940.50
2023-03-27T07:08:25.196Z,98940.41
2023-03-27T07:09:26.833Z,98944.76
2023-03-27T07:10:34.932Z,98944.66
2023-03-27T07:11:37.197Z,98946.36
2023-03-27T07:12:45.685Z,98946.17
2023-03-27T07:13:49.729Z,98950.39
2023-03-27T07:14:53.819Z,98949.24
2023-03-27T07:15:57.902Z,98949.05
2023-03-27T07:17:00.530Z,98949.80
2023-03-27T07:18:07.472Z,98949.47
2023-03-27T07:19:10.378Z,98952.77
2023-03-27T07:20:15.320Z,98958.73
2023-03-27T07:21:17.511Z,98968.30
2023-03-27T07:22:20.758Z,98956.63
2023-03-27T07:23:23.658Z,98957.25
2023-03-27T07:24:39.993Z,98954.40
2023-03-27T07:25:43.025Z,98953.25
2023-03-27T07:26:47.377Z,98958.35
2023-03-27T07:27:51.877Z,98961.52
2023-03-27T07:28:54.158Z,98949.75
2023-03-27T07:29:57.767Z,98954.86
2023-03-27T07:32:36.137Z,98948.30
2023-03-27T07:33:28.709Z,98954.97
2023-03-27T07:34:33.563Z,98961.77
2023-03-27T07:36:53.471Z,98955.44
2023-03-27T07:37:57.509Z,98954.97
2023-03-27T07:39:11.765Z,98955.61
2023-03-27T07:40:14.362Z,98951.59
2023-03-27T07:41:20.519Z,98951.38
2023-03-27T07:42:34.921Z,98945.86
2023-03-27T07:43:39.785Z,98947.36
2023-03-27T07:44:42.907Z,98941.84
2023-03-27T07:45:45.081Z,98950.31
2023-03-27T07:46:47.501Z,98947.55
2023-03-27T07:47:50.037Z,98951.59
2023-03-27T07:48:52.414Z,98957.52
2023-03-27T07:49:56.851Z,98952.84
2023-03-27T07:51:10.859Z,98954.33
2023-03-27T07:52:05.192Z,98957.52
2023-03-27T07:53:09.305Z,98959.08
2023-03-27T07:54:13.512Z,98957.06
2023-03-27T07:55:17.724Z,98960.46
2023-03-27T07:56:22.549Z,98965.56
2023-03-27T07:57:26.802Z,98961.95
2023-03-27T07:58:31.493Z,98956.42
2023-03-27T07:59:34.385Z,98961.49
2023-03-27T08:00:39.324Z,98955.96
2023-03-27T08:01:47.024Z,98953.09
2023-03-27T08:02:50.166Z,98946.59
2023-03-27T08:03:52.807Z,98951.66
2023-03-27T08:04:55.997Z,98949.75
2023-03-27T08:06:00.333Z,98956.55
2023-03-27T08:07:04.598Z,98949.20
2023-03-27T08:08:07.203Z,98947.15
2023-03-27T08:09:23.465Z,98944.38
2023-03-27T08:10:27.523Z,98946.71
2023-03-27T08:11:32.434Z,98950.00
2023-03-27T08:12:35.490Z,98947.97
2023-03-27T08:13:38.134Z,98939.63
2023-03-27T08:14:42.202Z,98945.58
2023-03-27T08:15:46.359Z,98941.73
2023-03-27T08:17:05.191Z,98935.20
2023-03-27T08:18:01.781Z,98940.19
2023-03-27T08:19:05.400Z,98937.20
2023-03-27T08:20:10.065Z,98937.67
2023-03-27T08:21:14.241Z,98932.02
2023-03-27T08:22:18.459Z,98936.27
2023-03-27T08:23:22.712Z,98940.41
2023-03-27T08:24:44.131Z,98937.48
2023-03-27T08:25:51.276Z,98930.23
2023-03-27T08:26:54.965Z,98942.36
2023-03-27T08:27:58.868Z,98941.31
2023-03-27T08:29:01.861Z,98935.88
2023-03-27T08:30:07.026Z,98940.13
2023-03-27T08:31:16.203Z,98937.09
2023-03-27T08:32:21.689Z,98937.70
2023-03-27T08:33:25.700Z,98940.03
2023-03-27T08:34:28.378Z,98940.77
2023-03-27T08:35:31.135Z,98934.59
2023-03-27T08:36:33.625Z,98937.11
2023-03-27T08:37:37.795Z,98938.10
2023-03-27T08:38:59.646Z,98933.73
2023-03-27T08:41:31.473Z,98936.41
2023-03-27T08:42:42.218Z,98938.10
2023-03-27T08:43:46.732Z,98932.63
2023-03-27T08:44:53.149Z,98933.48
2023-03-27T08:46:06.955Z,98928.89
2023-03-27T08:47:14.607Z,98931.55
2023-03-27T08:48:53.978Z,98929.62
2023-03-27T08:49:58.964Z,98930.23
2023-03-27T08:51:15.393Z,98927.93
2023-03-27T08:54:04.029Z,98924.22
2023-03-27T08:55:20.045Z,98934.02
2023-03-27T08:56:26.646Z,98940.55
2023-03-27T08:57:31.816Z,98936.45
2023-03-27T08:58:36.341Z,98934.25
2023-03-27T08:59:56.321Z,98933.89
2023-03-27T09:02:46.378Z,98927.70
2023-03-27T09:04:11.406Z,98928.91
2023-03-27T09:05:25.495Z,98931.34
2023-03-27T09:06:37.315Z,98931.22
2023-03-27T09:07:46.813Z,98930.37
2023-03-27T09:09:10.298Z,98930.61
2023-03-27T09:10:33.248Z,98930.73
2023-03-27T09:11:50.720Z,98932.55
2023-03-27T09:13:06.083Z,98929.64
2023-03-27T09:16:43.529Z,98917.94
2023-03-27T09:19:10.209Z,98924.20
2023-03-27T09:21:41.467Z,98919.59
2023-03-27T09:22:49.141Z,98924.48
2023-03-27T09:23:56.314Z,98923.26
2023-03-27T09:25:20.759Z,98920.19
2023-03-27T09:26:42.406Z,98916.55
2023-03-27T09:28:02.423Z,98926.63
2023-03-27T09:29:24.534Z,98919.86
2023-03-27T09:30:33.528Z,98921.33
2023-03-27T09:31:43.740Z,98929.82
2023-03-27T09:32:49.312Z,98925.82
2023-03-27T09:33:52.274Z,98928.85
2023-03-27T09:34:55.050Z,98928.28
2023-03-27T09:35:58.227Z,98930.22
2023-03-27T09:37:01.138Z,98927.67
2023-03-27T09:38:20.316Z,98925.73
2023-03-27T09:39:32.825Z,98930.80
2023-03-27T09:40:59.121Z,98929.58
2023-03-27T09:42:09.013Z,98927.27
2023-03-27T09:43:23.732Z,98929.55
2023-03-27T09:44:31.805Z,98921.08
2023-03-27T09:45:37.725Z,98928.59
2023-03-27T09:46:46.018Z,98924.92
2023-03-27T09:49:17.258Z,98925.28
2023-03-27T09:50:33.947Z,98927.14
2023-03-27T09:53:17.835Z,98926.63
2023-03-27T09:54:26.107Z,98924.84
2023-03-27T09:55:30.862Z,98916.97
2023-03-27T09:57:50.292Z,98912.59
2023-03-27T09:58:53.003Z,98916.00
2023-03-27T10:00:00.031Z,98918.41
2023-03-27T10:01:28.866Z,98920.84
2023-03-27T10:02:36.933Z,98921.56
2023-03-27T10:03:52.570Z,98917.08
2023-03-27T10:05:02.807Z,98923.26
2023-03-27T10:06:13.208Z,98922.25
2023-03-27T10:07:24.676Z,98919.34
2023-03-27T10:08:44.257Z,98918.13
2023-03-27T10:10:10.375Z,98910.84
2023-03-27T10:11:17.705Z,98907.92
2023-03-27T10:12:21.904Z,98916.66
2023-03-27T10:13:28.229Z,98912.73
2023-03-27T10:14:34.698Z,98906.17
2023-03-27T10:15:40.133Z,98906.77
2023-03-27T10:16:45.750Z,98910.00
2023-03-27T10:17:48.869Z,98905.39
2023-03-27T10:18:54.810Z,98904.28
2023-03-27T10:20:00.948Z,98912.89
2023-03-27T10:21:09.834Z,98907.55
2023-03-27T10:22:25.423Z,98908.27
2023-03-27T10:23:30.606Z,98909.25
2023-03-27T10:24:36.310Z,98909.25
2023-03-27T10:26:00.017Z,98911.20
2023-03-27T10:27:06.949Z,98909.75
2023-03-27T10:28:28.947Z,98906.48
2023-03-27T10:29:38.966Z,98905.80
2023-03-27T10:30:42.670Z,98908.34
2023-03-27T10:32:04.461Z,98910.00
2023-03-27T10:33:09.291Z,98912.89
2023-03-27T10:34:37.897Z,98908.02
2023-03-27T10:35:43.472Z,98911.54
2023-03-27T10:36:55.280Z,98911.80
2023-03-27T10:38:04.866Z,98907.30
2023-03-27T10:40:40.068Z,98910.87
2023-03-27T10:41:47.152Z,98904.88
2023-03-27T10:42:51.131Z,98905.13
2023-03-27T10:43:54.922Z,98904.16
2023-03-27T10:44:59.667Z,98904.16
2023-03-27T10:46:06.801Z,98901.49
2023-03-27T10:48:43.863Z,98897.06
2023-03-27T10:51:04.438Z,98894.39
2023-03-27T10:52:27.257Z,98897.13
2023-03-27T10:55:21.430Z,98897.06
2023-03-27T10:56:46.095Z,98893.48
2023-03-27T10:57:52.890Z,98898.57
2023-03-27T10:59:03.890Z,98895.65
2023-03-27T11:00:19.757Z,98901.67
2023-03-27T11:01:27.374Z,98900.86
2023-03-27T11:02:49.144Z,98899.17
2023-03-27T11:04:04.679Z,98893.23
2023-03-27T11:05:13.366Z,98896.87
2023-03-27T11:06:20.827Z,98894.45
2023-03-27T11:07:28.632Z,98896.41
2023-03-27T11:10:30.269Z,98887.64
2023-03-27T11:11:42.777Z,98885.00
2023-03-27T11:13:00.639Z,98893.73
2023-03-27T11:14:07.084Z,98893.73
2023-03-27T11:15:13.561Z,98888.65
2023-03-27T11:16:35.422Z,98893.14
2023-03-27T11:17:59.893Z,98888.80
2023-03-27T11:19:13.009Z,98883.31
2023-03-27T11:23:14.918Z,98887.64
2023-03-27T11:25:50.283Z,98874.98
2023-03-27T11:28:44.485Z,98879.81
2023-03-27T11:29:56.565Z,98883.99
2023-03-27T11:31:12.181Z,98877.01
2023-03-27T11:32:22.802Z,98876.21
2023-03-27T11:33:50.998Z,98876.55
2023-03-27T11:36:44.671Z,98863.20
2023-03-27T11:37:55.040Z,98871.73
2023-03-27T11:39:16.700Z,98874.28
2023-03-27T11:40:24.532Z,98873.70
2023-03-27T11:41:29.242Z,98872.13
2023-03-27T11:43:46.383Z,98869.33
2023-03-27T11:44:59.601Z,98870.66
2023-03-27T11:46:25.524Z,98868.14
2023-03-27T11:47:34.605Z,98878.96
2023-03-27T11:49:00.148Z,98868.41
2023-03-27T11:50:26.020Z,98868.66
2023-03-27T11:51:56.045Z,98875.11
2023-03-27T11:53:32.389Z,98871.72
2023-03-27T11:56:18.582Z,98865.61
2023-03-27T11:57:25.618Z,98873.67
2023-03-27T11:58:42.462Z,98867.48
2023-03-27T12:01:30.344Z,98852.50
2023-03-27T12:02:46.622Z,98857.09
2023-03-27T12:04:00.641Z,98858.78
2023-03-27T12:05:21.110Z,98855.95
2023-03-27T12:06:28.806Z,98856.95
2023-03-27T12:07:55.736Z,98863.96
2023-03-27T12:09:17.523Z,98854.97
2023-03-27T12:10:31.723Z,98858.23
2023-03-27T12:11:37.949Z,98853.48
2023-03-27T12:13:06.627Z,98855.89
2023-03-27T12:14:18.370Z,98852.12
2023-03-27T12:15:34.226Z,98851.83
2023-03-27T12:16:40.392Z,98849.87
2023-03-27T12:18:02.320Z,98847.92
2023-03-27T12:19:28.895Z,98847.92
2023-03-27T12:20:53.057Z,98850.72
2023-03-27T12:21:58.250Z,98845.38
2023-03-27T12:23:19.253Z,98847.33
2023-03-27T12:25:52.409Z,98848.50
2023-03-27T12:27:22.863Z,98846.91
2023-03-27T12:29:58.366Z,98848.77
2023-03-27T12:31:22.909Z,98854.33
2023-03-27T12:32:45.193Z,98851.79
2023-03-27T12:35:34.722Z,98851.95
2023-03-27T12:36:41.206Z,98846.96
2023-03-27T12:38:02.217Z,98849.80
2023-03-27T12:40:43.973Z,98843.52
2023-03-27T12:41:48.612Z,98846.28
2023-03-27T12:43:23.188Z,98846.96
2023-03-27T12:44:31.722Z,98848.66
2023-03-27T12:45:38.927Z,98843.31
2023-03-27T12:46:41.318Z,98840.52
2023-03-27T12:48:11.172Z,98845.73
2023-03-27T12:49:19.228Z,98849.12
2023-03-27T12:50:29.208Z,98842.80
2023-03-27T12:51:47.953Z,98839.28
2023-03-27T12:52:52.047Z,98832.12
2023-03-27T12:53:56.169Z,98839.16
2023-03-27T12:55:12.416Z,98838.05
2023-03-27T12:57:47.103Z,98829.09
2023-03-27T12:58:54.207Z,98839.61
2023-03-27T13:00:00.083Z,98831.59
2023-03-27T13:01:05.994Z,98841.98
2023-03-27T13:02:19.064Z,98827.66
2023-03-27T13:05:16.442Z,98830.55
2023-03-27T13:06:14.350Z,98833.61
2023-03-27T13:08:58.046Z,98827.14
2023-03-27T13:10:38.320Z,98833.96
2023-03-27T13:13:22.002Z,98818.55
2023-03-27T13:14:31.991Z,98823.98
2023-03-27T13:15:44.667Z,98830.31
2023-03-27T13:16:54.053Z,98818.91
2023-03-27T13:18:06.951Z,98822.55
2023-03-27T13:19:26.943Z,98821.84
2023-03-27T13:20:38.058Z,98820.18
2023-03-27T13:22:00.834Z,98815.81
2023-03-27T13:23:31.309Z,98818.63
2023-03-27T13:24:51.890Z,98819.47
2023-03-27T13:28:05.465Z,98815.25
2023-03-27T13:29:24.302Z,98818.17
2023-03-27T13:30:44.610Z,98815.62
2023-03-27T13:32:26.701Z,98815.62
2023-03-27T13:33:35.003Z,98819.86
2023-03-27T13:34:41.699Z,98811.98
2023-03-27T13:36:16.592Z,98811.00
2023-03-27T13:37:36.844Z,98813.41
2023-03-27T13:38:47.972Z,98808.06
2023-03-27T13:40:00.469Z,98804.41
2023-03-27T13:41:41.206Z,98804.14
2023-03-27T13:42:48.895Z,98808.48
2023-03-27T13:43:54.475Z,98805.55
2023-03-27T13:45:08.648Z,98807.23
2023-03-27T13:46:18.751Z,98797.39
2023-03-27T13:47:35.835Z,98797.26
2023-03-27T13:48:47.369Z,98803.31
2023-03-27T13:50:22.744Z,98803.31
2023-03-27T13:51:35.300Z,98797.26
2023-03-27T13:52:44.690Z,98792.89
2023-03-27T13:54:10.022Z,98794.59
2023-03-27T13:55:20.846Z,98793.47
2023-03-27T13:57:07.239Z,98794.93
2023-03-27T13:58:41.249Z,98795.78
2023-03-27T14:00:05.578Z,98794.08
2023-03-27T14:01:57.136Z,98794.08
2023-03-27T14:05:10.502Z,98783.98
2023-03-27T14:06:17.923Z,98783.94
2023-03-27T14:07:33.654Z,98784.78
2023-03-27T14:10:52.665Z,98776.09
2023-03-27T14:12:29.146Z,98785.32
2023-03-27T14:13:56.366Z,98784.48
2023-03-27T14:15:19.798Z,98787.99
2023-03-27T14:16:33.468Z,98785.32
2023-03-27T14:19:25.364Z,98791.83
2023-03-27T14:20:31.571Z,98792.05
2023-03-27T14:21:53.376Z,98784.03
2023-03-27T14:23:08.714Z,98780.24
2023-03-27T14:24:26.015Z,98785.32
2023-03-27T14:25:33.663Z,98782.65
2023-03-27T14:26:41.232Z,98784.23
2023-03-27T14:27:51.838Z,98782.41
2023-03-27T14:31:36.945Z,98774.53
2023-03-27T14:32:44.729Z,98776.59
2023-03-27T14:34:08.636Z,98779.27
2023-03-27T14:35:37.603Z,98774.90
2023-03-27T14:36:42.196Z,98776.59
2023-03-27T14:39:22.533Z,98771.28
2023-03-27T14:40:35.657Z,98774.31
2023-03-27T14:41:48.271Z,98763.77
2023-03-27T14:42:51.319Z,98768.39
2023-03-27T14:43:58.405Z,98770.39
2023-03-27T14:45:19.372Z,98772.21
2023-03-27T14:46:24.126Z,98764.33
2023-03-27T14:47:27.959Z,98775.15
2023-03-27T14:49:46.992Z,98766.44
2023-03-27T14:50:54.037Z,98772.88
2023-03-27T14:52:00.020Z,98777.95
2023-03-27T14:53:19.781Z,98769.94
2023-03-27T14:54:54.394Z,98772.34
2023-03-27T14:55:47.781Z,98764.06
2023-03-27T14:56:59.882Z,98763.89
2023-03-27T14:58:11.470Z,98768.97
2023-03-27T15:00:32.751Z,98767.05
2023-03-27T15:01:35.153Z,98766.30
2023-03-27T15:02:39.042Z,98764.74
2023-03-27T15:03:46.896Z,98768.13